Time;durP1;ratioP1;P1;durP2;ratioP2;P2;SDS_P1;SDS_P2;PMS_P1;PMS_P2;Temp;Humidity;BMP_temperature;BMP_pressure;BME280_temperature;BME280_humidity;BME280_pressure;Samples;Min_cycle;Max_cycle;Signal;HPM_P1;HPM_P2
2021/05/23 00:01:32;;;;;;;1.40;1.30;;;13.60;91.70;;;;;;5038452;28;20663;-51
2021/05/23 00:03:58;;;;;;;2.70;1.40;;;13.50;90.90;;;;;;5039222;28;20203;-51
2021/05/23 00:06:24;;;;;;;2.53;1.80;;;13.80;90.40;;;;;;5041367;28;20208;-52
2021/05/23 00:08:50;;;;;;;1.63;1.50;;;13.60;90.60;;;;;;5041994;28;20178;-51
2021/05/23 00:11:16;;;;;;;1.77;1.67;;;13.80;90.70;;;;;;5046750;28;20492;-51
2021/05/23 00:13:47;;;;;;;2.17;1.50;;;13.80;91.10;;;;;;5041360;28;20602;-51
2021/05/23 00:16:25;;;;;;;3.00;1.80;;;13.70;91.30;;;;;;5049919;28;20454;-51
2021/05/23 00:18:54;;;;;;;2.20;1.45;;;13.40;91.30;;;;;;5046085;28;20199;-51
2021/05/23 00:21:22;;;;;;;2.88;1.20;;;13.70;90.60;;;;;;5035788;28;20189;-50
2021/05/23 00:23:47;;;;;;;1.52;1.40;;;13.80;90.30;;;;;;5039531;28;20242;-52
2021/05/23 00:26:13;;;;;;;1.53;1.30;;;13.60;90.10;;;;;;5044634;28;20212;-51
2021/05/23 00:28:40;;;;;;;1.30;1.20;;;13.90;89.20;;;;;;5039735;28;20465;-52
2021/05/23 00:31:06;;;;;;;2.17;1.48;;;13.90;88.70;;;;;;5033865;28;20178;-51
2021/05/23 00:33:33;;;;;;;0.98;0.93;;;13.90;89.20;;;;;;5038543;28;20189;-51
2021/05/23 00:35:58;;;;;;;1.33;1.23;;;13.70;88.50;;;;;;5042820;28;20215;-51
2021/05/23 00:38:24;;;;;;;1.90;1.23;;;13.80;88.40;;;;;;5046637;28;20173;-51
2021/05/23 00:40:50;;;;;;;1.50;1.40;;;13.80;88.40;;;;;;5040408;28;20440;-51
2021/05/23 00:43:18;;;;;;;3.33;1.10;;;13.80;88.00;;;;;;5044817;28;20486;-51
2021/05/23 00:45:45;;;;;;;1.63;0.98;;;13.90;88.00;;;;;;5037128;28;20210;-51
2021/05/23 00:48:11;;;;;;;1.25;1.08;;;13.70;87.90;;;;;;5031803;28;20265;-51
2021/05/23 00:50:38;;;;;;;1.35;1.20;;;13.80;88.50;;;;;;5033745;28;20607;-51
2021/05/23 00:53:08;;;;;;;1.42;1.20;;;13.90;89.20;;;;;;5037826;28;20173;-51
2021/05/23 00:55:34;;;;;;;1.17;1.00;;;13.80;89.50;;;;;;5040769;28;20213;-51
2021/05/23 00:58:00;;;;;;;1.20;1.10;;;13.70;89.00;;;;;;5048963;28;20185;-52
2021/05/23 01:00:41;;;;;;;1.30;1.20;;;13.90;89.70;;;;;;5041277;28;20638;-52
2021/05/23 01:03:29;;;;;;;1.65;0.80;;;14.00;90.10;;;;;;5042169;28;20474;-52
2021/05/23 01:05:59;;;;;;;1.83;1.15;;;13.70;90.00;;;;;;5042810;28;20206;-53
2021/05/23 01:08:26;;;;;;;1.50;0.90;;;13.80;90.00;;;;;;5031985;28;20182;-52
2021/05/23 01:11:02;;;;;;;1.40;1.30;;;13.90;90.20;;;;;;5035638;28;20192;-51
2021/05/23 01:13:34;;;;;;;1.02;0.80;;;13.70;90.20;;;;;;5048982;28;20181;-52
2021/05/23 01:16:04;;;;;;;1.60;0.95;;;13.70;90.40;;;;;;5045597;28;20201;-51
2021/05/23 01:19:03;;;;;;;1.55;0.90;;;13.70;90.60;;;;;;5032666;28;20204;-52
2021/05/23 01:21:32;;;;;;;1.05;0.90;;;13.80;91.00;;;;;;5047038;28;20198;-51
2021/05/23 01:24:00;;;;;;;1.20;1.05;;;13.60;91.20;;;;;;5045755;28;20193;-52
2021/05/23 01:26:35;;;;;;;1.13;0.90;;;13.50;91.40;;;;;;5047426;28;20257;-52
2021/05/23 01:29:07;;;;;;;1.33;1.00;;;13.60;91.70;;;;;;5037235;28;20184;-51
2021/05/23 01:31:33;;;;;;;1.27;0.98;;;13.60;91.80;;;;;;5040340;28;20220;-51
2021/05/23 01:34:00;;;;;;;1.13;1.00;;;13.60;92.20;;;;;;5036027;28;20551;-51
2021/05/23 01:36:38;;;;;;;1.50;1.00;;;13.40;92.50;;;;;;5039157;28;20720;-52
2021/05/23 01:39:07;;;;;;;1.55;0.82;;;13.50;92.60;;;;;;5037963;28;20180;-52
2021/05/23 01:41:35;;;;;;;1.50;0.85;;;13.50;92.90;;;;;;5038067;28;20175;-51
2021/05/23 01:44:02;;;;;;;1.20;0.93;;;13.60;93.00;;;;;;5036273;28;20188;-51
2021/05/23 01:46:28;;;;;;;1.58;1.10;;;13.30;92.90;;;;;;5038549;28;20197;-51
2021/05/23 01:48:54;;;;;;;1.50;1.17;;;13.30;93.00;;;;;;5039130;28;20191;-52
2021/05/23 01:51:19;;;;;;;1.37;0.80;;;13.30;93.00;;;;;;5040436;28;20180;-52
2021/05/23 01:53:45;;;;;;;1.70;0.80;;;13.50;93.40;;;;;;5037007;28;20443;-52
2021/05/23 01:56:11;;;;;;;0.70;0.67;;;13.40;93.30;;;;;;5037148;28;20300;-52
2021/05/23 01:58:36;;;;;;;1.10;0.90;;;13.40;93.70;;;;;;5035159;28;20189;-52
2021/05/23 02:01:04;;;;;;;1.73;0.97;;;13.40;93.40;;;;;;5048139;28;20184;-51
2021/05/23 02:03:30;;;;;;;1.42;1.10;;;13.30;93.40;;;;;;5042523;28;20174;-52
2021/05/23 02:05:58;;;;;;;1.20;0.80;;;13.30;93.80;;;;;;5032519;28;20673;-52
2021/05/23 02:08:26;;;;;;;1.70;0.90;;;13.30;93.60;;;;;;5048147;28;20673;-52
2021/05/23 02:10:58;;;;;;;1.05;0.80;;;13.30;93.90;;;;;;5041348;28;20598;-51
2021/05/23 02:13:24;;;;;;;1.80;1.17;;;13.40;93.80;;;;;;5046124;28;20203;-52
2021/05/23 02:15:50;;;;;;;2.00;1.10;;;13.20;93.80;;;;;;5046799;28;20209;-52
2021/05/23 02:18:17;;;;;;;1.35;0.90;;;13.20;93.90;;;;;;5038671;28;20740;-51
2021/05/23 02:20:44;;;;;;;1.20;1.00;;;13.50;94.00;;;;;;5046798;28;20197;-52
2021/05/23 02:23:18;;;;;;;2.42;0.90;;;13.30;94.20;;;;;;5047867;28;20216;-51
2021/05/23 02:25:44;;;;;;;1.25;1.05;;;13.40;94.20;;;;;;5041381;28;20627;-52
2021/05/23 02:28:11;;;;;;;2.20;1.37;;;13.10;94.40;;;;;;5028868;28;20210;-52
2021/05/23 02:30:42;;;;;;;2.47;1.20;;;13.50;95.80;;;;;;5037662;28;20192;-52
2021/05/23 02:33:10;;;;;;;1.52;1.15;;;13.20;96.80;;;;;;5039870;28;20188;-52
2021/05/23 02:35:38;;;;;;;1.20;0.88;;;13.10;97.90;;;;;;5033500;28;20220;-52
2021/05/23 02:38:05;;;;;;;1.38;0.90;;;12.70;98.30;;;;;;5047415;28;20203;-52
2021/05/23 02:40:32;;;;;;;0.70;0.63;;;12.80;99.50;;;;;;5046691;28;20189;-51
2021/05/23 02:42:59;;;;;;;1.65;1.00;;;12.50;99.90;;;;;;5039225;28;20222;-51
2021/05/23 02:45:25;;;;;;;1.20;0.80;;;12.10;99.90;;;;;;5032950;28;20332;-52
2021/05/23 02:47:52;;;;;;;1.35;0.80;;;12.20;99.90;;;;;;5035997;28;20187;-51
2021/05/23 02:50:24;;;;;;;1.52;0.80;;;11.90;99.90;;;;;;5034474;28;20218;-51
2021/05/23 02:52:50;;;;;;;0.98;0.80;;;12.00;99.90;;;;;;5043530;28;20187;-51
2021/05/23 02:55:17;;;;;;;2.40;0.90;;;11.70;99.90;;;;;;5040890;28;20212;-52
2021/05/23 02:57:43;;;;;;;1.55;0.70;;;11.50;99.90;;;;;;5046498;28;20183;-52
2021/05/23 03:00:14;;;;;;;1.05;0.80;;;11.50;99.90;;;;;;5042204;28;20183;-51
2021/05/23 03:02:40;;;;;;;1.27;0.80;;;11.30;99.90;;;;;;5043571;28;20211;-51
2021/05/23 03:05:09;;;;;;;1.30;0.80;;;11.40;99.90;;;;;;5037525;28;20225;-51
2021/05/23 03:07:41;;;;;;;1.35;0.70;;;11.50;99.90;;;;;;5033846;28;20179;-51
2021/05/23 03:10:15;;;;;;;0.90;0.68;;;11.20;99.90;;;;;;5040831;28;20363;-51
2021/05/23 03:12:41;;;;;;;1.10;0.70;;;11.30;99.90;;;;;;5042809;28;20191;-52
2021/05/23 03:15:10;;;;;;;0.70;0.50;;;11.60;99.90;;;;;;5035182;28;20209;-51
2021/05/23 03:17:36;;;;;;;1.02;0.68;;;11.20;99.90;;;;;;5045214;28;20341;-51
2021/05/23 03:20:02;;;;;;;1.10;0.57;;;11.40;99.90;;;;;;5039751;28;20266;-51
2021/05/23 03:22:28;;;;;;;0.70;0.60;;;11.30;99.90;;;;;;5042559;28;20194;-51
2021/05/23 03:24:53;;;;;;;2.00;0.90;;;11.20;99.90;;;;;;5047864;28;20199;-52
2021/05/23 03:27:19;;;;;;;0.83;0.60;;;11.10;99.90;;;;;;5037944;28;20599;-51
2021/05/23 03:29:48;;;;;;;0.83;0.60;;;11.10;99.90;;;;;;5042834;28;20192;-52
2021/05/23 03:32:13;;;;;;;1.00;0.65;;;11.00;99.90;;;;;;5045927;28;20194;-52
2021/05/23 03:34:39;;;;;;;0.90;0.70;;;11.00;99.90;;;;;;5042631;28;20202;-51
2021/05/23 03:37:05;;;;;;;0.73;0.70;;;10.90;99.90;;;;;;5041576;28;20216;-51
2021/05/23 03:39:30;;;;;;;1.63;0.80;;;10.80;99.90;;;;;;5049259;28;20197;-51
2021/05/23 03:41:56;;;;;;;0.60;0.60;;;10.80;99.90;;;;;;5038012;28;20186;-52
2021/05/23 03:44:22;;;;;;;0.60;0.60;;;10.80;99.90;;;;;;5040526;28;20213;-51
2021/05/23 03:46:47;;;;;;;0.80;0.70;;;10.70;99.90;;;;;;5045500;28;20488;-51
2021/05/23 03:49:13;;;;;;;0.90;0.70;;;11.10;99.90;;;;;;5034081;28;20194;-52
2021/05/23 03:51:39;;;;;;;0.70;0.60;;;10.90;99.90;;;;;;5039683;28;20277;-52
2021/05/23 03:54:06;;;;;;;0.90;0.60;;;10.70;99.90;;;;;;5038361;28;20198;-53
2021/05/23 03:56:32;;;;;;;0.85;0.80;;;10.90;99.90;;;;;;5047093;28;20206;-53
2021/05/23 03:58:58;;;;;;;0.60;0.60;;;11.00;99.90;;;;;;5043848;28;20228;-52
2021/05/23 04:01:23;;;;;;;0.67;0.67;;;11.00;99.90;;;;;;5043020;28;20186;-52
2021/05/23 04:03:49;;;;;;;1.87;0.70;;;11.30;99.90;;;;;;5045788;28;20653;-52
2021/05/23 04:06:15;;;;;;;0.70;0.70;;;10.90;99.90;;;;;;5041014;28;20206;-53
2021/05/23 04:08:40;;;;;;;2.80;0.70;;;11.10;99.90;;;;;;5040263;28;20232;-52
2021/05/23 04:11:18;;;;;;;1.43;0.60;;;11.20;99.90;;;;;;5031050;28;20636;-52
2021/05/23 04:13:44;;;;;;;0.70;0.60;;;11.20;99.90;;;;;;5042184;28;20189;-52
2021/05/23 04:16:11;;;;;;;1.13;0.60;;;11.20;99.90;;;;;;5047170;28;20212;-53
2021/05/23 04:18:37;;;;;;;0.60;0.60;;;11.10;99.90;;;;;;5065540;28;20200;-53
2021/05/23 04:21:04;;;;;;;0.60;0.53;;;11.10;99.90;;;;;;5066784;28;20551;-52
2021/05/23 04:23:29;;;;;;;2.38;1.15;;;11.30;99.90;;;;;;5043833;28;20428;-52
2021/05/23 04:25:55;;;;;;;0.97;0.77;;;11.20;99.90;;;;;;5040974;28;20753;-53
2021/05/23 04:28:21;;;;;;;1.13;0.70;;;11.10;99.90;;;;;;5049312;28;20493;-52
2021/05/23 04:30:46;;;;;;;0.80;0.70;;;11.20;99.90;;;;;;5045382;28;20205;-52
2021/05/23 04:33:13;;;;;;;0.77;0.70;;;10.90;99.90;;;;;;5043752;28;20222;-52
2021/05/23 04:35:39;;;;;;;0.80;0.80;;;11.20;99.90;;;;;;5041363;28;20261;-58
2021/05/23 04:38:05;;;;;;;1.50;1.23;;;11.00;99.90;;;;;;5042963;28;20206;-57
2021/05/23 04:40:32;;;;;;;0.75;0.70;;;11.10;99.90;;;;;;5044196;28;20206;-55
2021/05/23 04:42:57;;;;;;;2.00;0.80;;;11.10;99.90;;;;;;5045162;28;20189;-55
2021/05/23 04:45:23;;;;;;;0.73;0.73;;;11.20;99.90;;;;;;5042900;28;20652;-58
2021/05/23 04:47:50;;;;;;;0.80;0.70;;;11.30;99.90;;;;;;5044812;28;21034;-56
2021/05/23 04:50:16;;;;;;;1.98;0.70;;;11.10;99.90;;;;;;5045024;28;20415;-57
2021/05/23 04:52:43;;;;;;;0.70;0.60;;;11.00;99.90;;;;;;5045072;28;20663;-57
2021/05/23 04:55:09;;;;;;;2.65;0.70;;;11.00;99.90;;;;;;5043197;28;20256;-55
2021/05/23 04:57:36;;;;;;;1.40;0.85;;;11.20;99.90;;;;;;5045664;28;20191;-54
2021/05/23 05:00:08;;;;;;;0.95;0.80;;;11.30;99.90;;;;;;5037855;28;20182;-55
2021/05/23 05:02:34;;;;;;;1.42;0.70;;;11.20;99.90;;;;;;5042956;28;20177;-55
2021/05/23 05:05:00;;;;;;;1.50;0.90;;;11.00;99.90;;;;;;5041368;28;20234;-55
2021/05/23 05:07:26;;;;;;;0.80;0.70;;;11.40;99.90;;;;;;5045102;28;20939;-55
2021/05/23 05:09:51;;;;;;;1.47;0.70;;;11.20;99.90;;;;;;5043796;28;21210;-53
2021/05/23 05:12:17;;;;;;;1.63;0.83;;;10.90;99.90;;;;;;5046384;28;20186;-52
2021/05/23 05:14:42;;;;;;;0.87;0.80;;;11.60;99.90;;;;;;5043821;28;20216;-52
2021/05/23 05:17:08;;;;;;;1.20;0.90;;;11.50;99.90;;;;;;5045169;28;20247;-52
2021/05/23 05:19:34;;;;;;;1.20;0.80;;;11.60;99.90;;;;;;5043545;28;20256;-50
2021/05/23 05:22:00;;;;;;;1.10;0.70;;;11.40;99.90;;;;;;5043670;28;22207;-51
2021/05/23 05:24:25;;;;;;;0.90;0.70;;;11.70;99.90;;;;;;5043231;28;20635;-49
2021/05/23 05:26:51;;;;;;;1.30;0.70;;;11.90;99.90;;;;;;5040735;28;20501;-55
2021/05/23 05:29:17;;;;;;;0.90;0.80;;;11.90;99.90;;;;;;5045916;28;20195;-53
2021/05/23 05:31:43;;;;;;;1.25;0.80;;;12.10;99.90;;;;;;5040974;28;20654;-53
2021/05/23 05:34:09;;;;;;;2.17;0.90;;;12.00;99.90;;;;;;5043855;28;20207;-54
2021/05/23 05:36:34;;;;;;;1.30;0.90;;;12.10;99.90;;;;;;5045210;28;20441;-54
2021/05/23 05:39:00;;;;;;;1.10;1.00;;;12.10;99.90;;;;;;5041844;28;20278;-51
2021/05/23 05:41:26;;;;;;;0.87;0.80;;;12.30;99.90;;;;;;5044566;28;20196;-54
2021/05/23 05:43:51;;;;;;;1.00;0.80;;;12.30;99.90;;;;;;5045080;28;20444;-52
2021/05/23 05:46:19;;;;;;;1.33;0.80;;;12.40;99.90;;;;;;5037657;28;20214;-53
2021/05/23 05:48:44;;;;;;;1.10;0.90;;;12.30;99.90;;;;;;5058729;28;20257;-51
2021/05/23 05:51:10;;;;;;;1.67;1.00;;;11.90;99.90;;;;;;5041044;28;20218;-51
2021/05/23 05:53:36;;;;;;;0.83;0.70;;;12.40;99.90;;;;;;5044228;28;20207;-53
2021/05/23 05:56:02;;;;;;;1.47;0.80;;;12.40;99.90;;;;;;5042567;28;20664;-52
2021/05/23 05:58:27;;;;;;;1.05;0.80;;;12.80;99.90;;;;;;5043896;28;20660;-53
2021/05/23 06:00:53;;;;;;;0.80;0.80;;;12.70;99.90;;;;;;5042637;28;20190;-54
2021/05/23 06:03:19;;;;;;;0.90;0.80;;;12.30;99.90;;;;;;5060297;28;20220;-54
2021/05/23 06:05:45;;;;;;;0.88;0.88;;;12.70;99.90;;;;;;5042434;28;20209;-53
2021/05/23 06:08:10;;;;;;;1.10;1.00;;;12.70;99.90;;;;;;5042096;28;20536;-53
2021/05/23 06:10:37;;;;;;;1.83;0.80;;;12.70;99.90;;;;;;5040628;28;20451;-53
2021/05/23 06:13:04;;;;;;;1.00;0.85;;;12.90;99.90;;;;;;5043524;28;20187;-52
2021/05/23 06:15:30;;;;;;;0.90;0.80;;;13.20;99.90;;;;;;5044044;28;20673;-53
2021/05/23 06:17:55;;;;;;;1.87;0.90;;;13.10;99.90;;;;;;5044892;28;20211;-55
2021/05/23 06:20:21;;;;;;;0.77;0.63;;;13.30;99.90;;;;;;5047289;28;20527;-50
2021/05/23 06:22:47;;;;;;;0.80;0.70;;;13.20;99.90;;;;;;5047044;28;20186;-53
2021/05/23 06:25:13;;;;;;;0.97;0.83;;;13.40;99.90;;;;;;5045587;28;20707;-53
2021/05/23 06:27:39;;;;;;;1.00;0.80;;;13.50;99.90;;;;;;5048819;28;20271;-51
2021/05/23 06:30:05;;;;;;;1.33;0.90;;;13.40;99.90;;;;;;5048166;28;20509;-52
2021/05/23 06:32:31;;;;;;;1.00;0.90;;;13.20;99.90;;;;;;5044118;28;20449;-49
2021/05/23 06:34:57;;;;;;;0.90;0.80;;;13.30;99.90;;;;;;5048257;28;20280;-49
2021/05/23 06:37:23;;;;;;;0.70;0.70;;;13.60;99.90;;;;;;5045586;28;20537;-49
2021/05/23 06:39:48;;;;;;;1.07;0.97;;;13.50;99.90;;;;;;5046676;28;20219;-49
2021/05/23 06:42:14;;;;;;;1.63;0.70;;;13.20;99.90;;;;;;5045875;28;20194;-49
2021/05/23 06:44:40;;;;;;;0.80;0.70;;;13.90;99.90;;;;;;5044490;28;20284;-49
2021/05/23 06:47:06;;;;;;;2.15;0.90;;;13.80;99.90;;;;;;5042350;28;20221;-49
2021/05/23 06:49:32;;;;;;;0.70;0.60;;;14.00;99.80;;;;;;5042996;28;20587;-51
2021/05/23 06:51:59;;;;;;;1.77;0.90;;;14.30;99.50;;;;;;5043644;28;20189;-51
2021/05/23 06:54:25;;;;;;;0.80;0.60;;;14.50;99.40;;;;;;5045832;28;20763;-52
2021/05/23 06:56:50;;;;;;;0.80;0.70;;;14.30;98.70;;;;;;5041252;28;20202;-51
2021/05/23 06:59:16;;;;;;;1.10;1.00;;;14.30;98.50;;;;;;5051219;28;20185;-52
2021/05/23 07:01:42;;;;;;;1.90;0.83;;;14.30;98.40;;;;;;5042459;28;20186;-52
2021/05/23 07:04:07;;;;;;;0.70;0.70;;;14.40;98.50;;;;;;5035703;28;20207;-51
2021/05/23 07:06:33;;;;;;;0.93;0.80;;;14.70;97.70;;;;;;5042442;28;20228;-51
2021/05/23 07:08:58;;;;;;;0.70;0.67;;;14.90;97.90;;;;;;5033305;28;20214;-51
2021/05/23 07:11:31;;;;;;;1.33;0.70;;;15.00;97.10;;;;;;5043813;28;20174;-52
2021/05/23 07:13:56;;;;;;;0.70;0.70;;;15.20;96.50;;;;;;5045669;28;20173;-52
2021/05/23 07:16:22;;;;;;;1.03;0.60;;;14.90;96.50;;;;;;5045025;28;20660;-52
2021/05/23 07:18:48;;;;;;;1.23;0.70;;;15.90;96.50;;;;;;5046708;28;20197;-52
2021/05/23 07:21:13;;;;;;;0.80;0.73;;;17.60;92.70;;;;;;5049573;28;20311;-50
2021/05/23 07:23:40;;;;;;;1.00;0.87;;;20.30;86.20;;;;;;5025795;28;20578;-49
2021/05/23 07:26:06;;;;;;;0.90;0.70;;;21.80;77.30;;;;;;5044798;28;20571;-49
2021/05/23 07:28:33;;;;;;;1.93;0.90;;;22.80;69.50;;;;;;5046717;28;20906;-51
2021/05/23 07:30:59;;;;;;;0.70;0.60;;;22.10;68.70;;;;;;5042363;28;20193;-51
2021/05/23 07:33:24;;;;;;;1.10;0.70;;;20.60;71.30;;;;;;5038822;28;20200;-51
2021/05/23 07:35:50;;;;;;;1.17;0.80;;;19.70;75.90;;;;;;5040320;28;20218;-50
2021/05/23 07:38:16;;;;;;;0.73;0.73;;;18.80;80.20;;;;;;5041994;28;20189;-49
2021/05/23 07:40:41;;;;;;;1.27;0.60;;;18.10;81.20;;;;;;5043304;28;20232;-51
2021/05/23 07:43:07;;;;;;;1.27;0.80;;;18.10;81.60;;;;;;5038765;28;20247;-50
2021/05/23 07:45:33;;;;;;;1.87;0.80;;;17.90;82.70;;;;;;5044209;28;20221;-50
2021/05/23 07:47:59;;;;;;;7.73;1.53;;;17.50;87.30;;;;;;5044891;28;20651;-51
2021/05/23 07:50:25;;;;;;;3.20;1.00;;;16.80;91.30;;;;;;5047386;28;20535;-51
2021/05/23 07:52:51;;;;;;;0.80;0.70;;;15.20;91.20;;;;;;5041697;28;20615;-51
2021/05/23 07:55:18;;;;;;;0.90;0.60;;;14.60;93.10;;;;;;5046471;28;20297;-50
2021/05/23 07:57:44;;;;;;;1.23;0.70;;;13.90;94.80;;;;;;5048466;28;20182;-50
2021/05/23 08:00:11;;;;;;;0.80;0.73;;;13.20;96.20;;;;;;5041975;28;20182;-50
2021/05/23 08:02:37;;;;;;;0.95;0.85;;;12.80;98.60;;;;;;5039614;28;20187;-50
2021/05/23 08:05:03;;;;;;;1.67;1.00;;;12.30;99.90;;;;;;5038823;28;20200;-51
2021/05/23 08:07:29;;;;;;;1.30;0.80;;;11.90;99.90;;;;;;5039134;28;20211;-51
2021/05/23 08:09:55;;;;;;;0.90;0.70;;;11.80;99.90;;;;;;5033732;28;20244;-51
2021/05/23 08:12:21;;;;;;;1.80;0.80;;;11.60;99.90;;;;;;5040317;28;20186;-51
2021/05/23 08:14:46;;;;;;;1.07;0.97;;;11.90;99.90;;;;;;5044513;28;20798;-51
2021/05/23 08:17:12;;;;;;;1.70;0.87;;;12.00;99.90;;;;;;5041676;28;20186;-50
2021/05/23 08:19:39;;;;;;;0.80;0.70;;;13.10;99.90;;;;;;5045067;28;20243;-53
2021/05/23 08:22:05;;;;;;;1.17;0.77;;;15.20;99.90;;;;;;5041611;28;20243;-51
2021/05/23 08:24:32;;;;;;;2.67;0.90;;;17.10;95.60;;;;;;5043444;28;21098;-52
2021/05/23 08:26:58;;;;;;;1.48;0.80;;;18.50;92.60;;;;;;5043086;28;20217;-51
2021/05/23 08:29:24;;;;;;;0.73;0.60;;;20.60;87.60;;;;;;5043980;28;20186;-51
2021/05/23 08:31:50;;;;;;;0.80;0.70;;;22.90;77.30;;;;;;5041787;28;21264;-50
2021/05/23 08:34:16;;;;;;;0.80;0.67;;;24.10;72.30;;;;;;5042066;28;20549;-51
2021/05/23 08:36:41;;;;;;;1.53;0.80;;;23.80;66.60;;;;;;5042914;28;20444;-51
2021/05/23 08:39:07;;;;;;;0.70;0.60;;;25.10;66.30;;;;;;5041942;28;20185;-51
2021/05/23 08:41:33;;;;;;;1.43;0.80;;;25.90;60.10;;;;;;5041916;28;20189;-51
2021/05/23 08:43:59;;;;;;;1.57;0.73;;;26.10;58.80;;;;;;5044129;28;20228;-50
2021/05/23 08:46:29;;;;;;;0.83;0.70;;;26.30;55.80;;;;;;5044098;28;20992;-52
2021/05/23 08:48:56;;;;;;;1.13;0.80;;;25.40;54.00;;;;;;5058692;28;20447;-52
2021/05/23 08:51:22;;;;;;;1.00;0.80;;;24.80;55.80;;;;;;5037197;28;23062;-50
2021/05/23 08:53:48;;;;;;;2.37;0.80;;;23.20;56.30;;;;;;5042133;28;20515;-51
2021/05/23 08:56:13;;;;;;;1.57;0.90;;;23.20;58.80;;;;;;5042406;28;22965;-53
2021/05/23 08:58:39;;;;;;;1.43;0.80;;;22.30;60.90;;;;;;5042983;28;20193;-51
2021/05/23 09:01:04;;;;;;;1.83;0.80;;;21.00;63.40;;;;;;5041033;28;20201;-50
2021/05/23 09:03:30;;;;;;;1.67;0.90;;;21.70;59.60;;;;;;5045229;28;20306;-49
2021/05/23 09:05:56;;;;;;;1.60;0.80;;;22.40;58.70;;;;;;5057036;28;20240;-51
2021/05/23 09:08:30;;;;;;;2.20;0.90;;;22.50;57.30;;;;;;5042473;28;20189;-50
2021/05/23 09:10:58;;;;;;;1.87;0.90;;;22.90;59.00;;;;;;5042606;28;20946;-50
2021/05/23 09:13:32;;;;;;;1.33;0.70;;;24.50;55.10;;;;;;5042563;28;20457;-50
2021/05/23 09:16:06;;;;;;;1.17;0.70;;;26.30;51.30;;;;;;5043531;28;20527;-50
2021/05/23 09:18:50;;;;;;;3.43;0.80;;;25.90;51.70;;;;;;5061207;28;20479;-52
2021/05/23 09:21:27;;;;;;;1.47;0.80;;;25.20;54.30;;;;;;5041695;28;20456;-52
2021/05/23 09:23:59;;;;;;;1.57;0.90;;;23.30;58.00;;;;;;5041764;28;20447;-51
2021/05/23 09:26:27;;;;;;;0.80;0.70;;;22.30;60.00;;;;;;5042530;28;20568;-52
2021/05/23 09:28:54;;;;;;;1.15;0.88;;;21.20;61.80;;;;;;5043386;28;20432;-51
2021/05/23 09:31:24;;;;;;;1.58;0.98;;;20.60;65.10;;;;;;5042567;28;20182;-50
2021/05/23 09:33:52;;;;;;;2.25;0.80;;;19.80;67.50;;;;;;5040567;28;20194;-49
2021/05/23 09:36:19;;;;;;;1.00;0.90;;;19.00;68.40;;;;;;5038412;28;20346;-51
2021/05/23 09:38:55;;;;;;;1.70;1.17;;;18.30;72.60;;;;;;5042548;28;20195;-51
2021/05/23 09:41:23;;;;;;;3.83;1.20;;;17.60;73.70;;;;;;5042316;28;20243;-51
2021/05/23 09:43:49;;;;;;;1.73;1.17;;;17.50;74.20;;;;;;5044649;28;20181;-52
2021/05/23 09:46:15;;;;;;;3.40;1.10;;;17.20;77.50;;;;;;5039233;28;20210;-52
2021/05/23 09:48:49;;;;;;;0.80;0.67;;;16.60;80.80;;;;;;5041000;28;20989;-52
2021/05/23 09:51:18;;;;;;;1.20;0.88;;;15.70;82.60;;;;;;5045041;28;20183;-50
2021/05/23 09:53:45;;;;;;;1.23;0.90;;;15.50;85.80;;;;;;5042760;28;20170;-50
2021/05/23 09:56:14;;;;;;;3.83;2.13;;;15.10;89.20;;;;;;5039825;28;20185;-51
2021/05/23 09:58:48;;;;;;;1.55;1.00;;;15.20;90.50;;;;;;5041824;28;20194;-50
2021/05/23 10:01:24;;;;;;;1.35;1.00;;;14.80;90.60;;;;;;5041568;28;20246;-52
2021/05/23 10:03:52;;;;;;;1.00;0.85;;;14.40;91.60;;;;;;5039767;28;20682;-51
2021/05/23 10:06:33;;;;;;;2.85;0.90;;;15.90;89.60;;;;;;5043518;28;20244;-51
2021/05/23 10:08:59;;;;;;;1.90;1.45;;;17.80;85.80;;;;;;5040066;28;20773;-52
2021/05/23 10:11:26;;;;;;;1.10;0.80;;;19.30;77.40;;;;;;5040944;28;20250;-51
2021/05/23 10:13:52;;;;;;;1.87;0.90;;;21.40;75.20;;;;;;5041761;28;20327;-52
2021/05/23 10:16:18;;;;;;;1.37;0.80;;;22.40;63.30;;;;;;5039534;28;20444;-50
2021/05/23 10:18:45;;;;;;;2.40;1.10;;;22.80;59.80;;;;;;5038937;28;20460;-50
2021/05/23 10:21:12;;;;;;;1.23;0.80;;;22.90;61.90;;;;;;5039021;28;22092;-53
2021/05/23 10:23:53;;;;;;;1.90;0.80;;;22.70;59.50;;;;;;5042820;28;20451;-52
2021/05/23 10:26:23;;;;;;;1.37;0.83;;;23.00;59.20;;;;;;5041069;28;20459;-51
2021/05/23 10:28:50;;;;;;;3.43;1.00;;;23.20;57.10;;;;;;5042905;28;20440;-52
2021/05/23 10:31:30;;;;;;;2.50;0.83;;;23.00;57.30;;;;;;5039696;28;20464;-54
2021/05/23 10:33:56;;;;;;;1.63;0.83;;;22.40;57.20;;;;;;5040756;28;20440;-51
2021/05/23 10:36:37;;;;;;;1.43;1.07;;;22.90;56.50;;;;;;5039783;28;21600;-51
2021/05/23 10:39:07;;;;;;;3.10;1.33;;;23.30;56.30;;;;;;5040571;28;21096;-51
2021/05/23 10:41:33;;;;;;;3.17;1.00;;;23.70;55.30;;;;;;5041659;28;20429;-52
2021/05/23 10:44:03;;;;;;;1.17;0.90;;;23.40;52.80;;;;;;5040811;28;20440;-52
2021/05/23 10:46:30;;;;;;;1.33;1.00;;;23.60;51.00;;;;;;5041183;28;20460;-52
2021/05/23 10:49:00;;;;;;;1.00;0.70;;;24.40;51.40;;;;;;5040669;28;21023;-50
2021/05/23 10:51:27;;;;;;;1.00;0.80;;;24.00;49.70;;;;;;5037944;28;20440;-51
2021/05/23 10:53:54;;;;;;;1.10;0.87;;;23.60;49.70;;;;;;5056117;28;20494;-51
2021/05/23 10:56:31;;;;;;;1.50;0.83;;;22.50;52.20;;;;;;5040475;28;20816;-52
2021/05/23 10:59:02;;;;;;;1.70;0.80;;;21.70;53.60;;;;;;5043945;28;20530;-53
2021/05/23 11:02:00;;;;;;;2.03;0.87;;;21.30;55.70;;;;;;5042219;28;20948;-51
2021/05/23 11:04:35;;;;;;;1.50;1.40;;;22.00;56.40;;;;;;5041967;28;20456;-51
2021/05/23 11:07:08;;;;;;;1.07;0.80;;;21.80;56.00;;;;;;5060046;28;20467;-51
2021/05/23 11:09:37;;;;;;;0.93;0.70;;;21.30;55.30;;;;;;5044207;28;20515;-51
2021/05/23 11:12:07;;;;;;;0.80;0.80;;;20.60;55.50;;;;;;5042438;28;20243;-51
2021/05/23 11:14:33;;;;;;;1.90;0.82;;;19.90;57.30;;;;;;5044804;28;21824;-51
2021/05/23 11:16:59;;;;;;;0.90;0.80;;;19.50;59.70;;;;;;5046719;28;20208;-52
2021/05/23 11:19:33;;;;;;;1.20;0.80;;;19.10;61.50;;;;;;5042366;28;20182;-52
2021/05/23 11:21:59;;;;;;;1.30;0.85;;;18.40;63.70;;;;;;5041744;28;20836;-52
2021/05/23 11:24:27;;;;;;;1.33;0.70;;;18.10;66.10;;;;;;5045026;28;20292;-51
2021/05/23 11:26:52;;;;;;;0.80;0.80;;;17.40;67.30;;;;;;5041788;28;20489;-50
2021/05/23 11:29:19;;;;;;;1.20;0.60;;;18.10;68.00;;;;;;5045130;28;20181;-51
2021/05/23 11:31:49;;;;;;;0.70;0.60;;;17.70;66.90;;;;;;5044405;28;20812;-51
2021/05/23 11:34:20;;;;;;;2.05;0.73;;;18.20;65.80;;;;;;5043508;28;20702;-51
2021/05/23 11:36:46;;;;;;;1.00;0.68;;;18.60;64.70;;;;;;5057191;28;20239;-51
2021/05/23 11:39:14;;;;;;;1.98;0.90;;;19.10;63.80;;;;;;5038782;28;20201;-50
2021/05/23 11:41:42;;;;;;;4.03;0.90;;;19.00;63.90;;;;;;5062318;28;20216;-51
2021/05/23 11:44:10;;;;;;;2.08;0.60;;;19.40;60.90;;;;;;5058121;28;20310;-51
2021/05/23 11:46:38;;;;;;;1.35;0.70;;;19.80;59.50;;;;;;5051187;28;20304;-53
2021/05/23 11:49:04;;;;;;;0.90;0.70;;;20.20;58.60;;;;;;5041893;28;20173;-52
2021/05/23 11:51:34;;;;;;;0.63;0.50;;;20.30;58.00;;;;;;5043157;28;20182;-52
2021/05/23 11:54:02;;;;;;;0.80;0.70;;;19.90;56.70;;;;;;5059150;28;20209;-51
2021/05/23 11:56:31;;;;;;;0.70;0.68;;;19.90;57.40;;;;;;5041093;28;20185;-52
2021/05/23 11:58:58;;;;;;;2.35;1.60;;;19.80;57.10;;;;;;5046100;28;20208;-52
2021/05/23 12:01:32;;;;;;;1.27;1.17;;;19.60;57.80;;;;;;5043877;28;20182;-52
2021/05/23 12:04:18;;;;;;;0.90;0.70;;;19.70;58.00;;;;;;5044542;28;20527;-53
2021/05/23 12:06:52;;;;;;;1.20;0.70;;;19.70;58.00;;;;;;5044335;28;20224;-53
2021/05/23 12:09:23;;;;;;;1.70;0.80;;;19.50;56.70;;;;;;5045452;28;20215;-53
2021/05/23 12:11:52;;;;;;;1.25;0.70;;;18.80;57.80;;;;;;5044818;28;20220;-53
2021/05/23 12:14:45;;;;;;;0.98;0.70;;;18.80;58.30;;;;;;5043925;28;20716;-52
2021/05/23 12:17:16;;;;;;;1.23;0.90;;;19.00;59.50;;;;;;5043146;28;20193;-51
2021/05/23 12:22:16;;;;;;;0.93;0.80;;;18.90;59.80;;;;;;5046231;28;20753;-51
2021/05/23 12:24:42;;;;;;;0.80;0.70;;;18.80;60.60;;;;;;5044117;28;20204;-51
2021/05/23 12:27:07;;;;;;;1.03;0.93;;;19.10;59.10;;;;;;5045790;28;20568;-52
2021/05/23 12:29:33;;;;;;;1.47;0.70;;;18.80;57.70;;;;;;5043584;28;20895;-51
2021/05/23 12:32:03;;;;;;;1.93;0.90;;;18.80;58.40;;;;;;5043213;28;20235;-50
2021/05/23 12:34:31;;;;;;;2.75;0.80;;;18.90;57.90;;;;;;5042243;28;20212;-51
2021/05/23 12:37:00;;;;;;;1.20;0.85;;;18.70;56.40;;;;;;5044725;28;20188;-52
2021/05/23 12:39:26;;;;;;;0.70;0.60;;;18.70;58.10;;;;;;5041800;28;20276;-50
2021/05/23 12:41:53;;;;;;;1.87;0.80;;;18.60;59.60;;;;;;5040996;28;20367;-49
2021/05/23 12:44:25;;;;;;;4.10;1.00;;;18.70;60.20;;;;;;5044198;28;20918;-51
2021/05/23 12:46:52;;;;;;;1.13;0.75;;;18.90;60.70;;;;;;5042203;28;20224;-50
2021/05/23 12:49:24;;;;;;;2.47;1.50;;;18.80;60.40;;;;;;5041803;28;20261;-50
2021/05/23 12:51:54;;;;;;;3.25;0.95;;;18.90;59.60;;;;;;5045137;28;20190;-48
2021/05/23 12:54:24;;;;;;;1.00;0.80;;;18.70;59.00;;;;;;5043656;28;20212;-50